sensor_id;sensor_type;location;lat;lon;timestamp;P1;durP1;ratioP1;P2;durP2;ratioP2
6089;SDS011;3073;42.660;23.316;2023-05-10T00:01:21;6.80;;;5.23;;
6089;SDS011;3073;42.660;23.316;2023-05-10T00:03:47;21.50;;;6.80;;
6089;SDS011;3073;42.660;23.316;2023-05-10T00:06:14;9.80;;;6.47;;
6089;SDS011;3073;42.660;23.316;2023-05-10T00:08:43;11.30;;;6.40;;
6089;SDS011;3073;42.660;23.316;2023-05-10T00:11:11;10.37;;;6.53;;
6089;SDS011;3073;42.660;23.316;2023-05-10T00:13:38;13.87;;;7.37;;
6089;SDS011;3073;42.660;23.316;2023-05-10T00:16:05;11.07;;;6.10;;
6089;SDS011;3073;42.660;23.316;2023-05-10T00:18:32;8.40;;;5.87;;
6089;SDS011;3073;42.660;23.316;2023-05-10T00:20:59;6.70;;;5.20;;
6089;SDS011;3073;42.660;23.316;2023-05-10T00:23:26;12.93;;;6.90;;
6089;SDS011;3073;42.660;23.316;2023-05-10T00:25:54;11.23;;;7.37;;
6089;SDS011;3073;42.660;23.316;2023-05-10T00:28:22;11.50;;;7.20;;
6089;SDS011;3073;42.660;23.316;2023-05-10T00:30:49;12.83;;;8.77;;
6089;SDS011;3073;42.660;23.316;2023-05-10T00:33:16;14.53;;;7.50;;
6089;SDS011;3073;42.660;23.316;2023-05-10T00:35:43;12.80;;;7.80;;
6089;SDS011;3073;42.660;23.316;2023-05-10T00:38:10;10.60;;;7.27;;
6089;SDS011;3073;42.660;23.316;2023-05-10T00:40:37;11.10;;;7.80;;
6089;SDS011;3073;42.660;23.316;2023-05-10T00:43:05;10.20;;;7.57;;
6089;SDS011;3073;42.660;23.316;2023-05-10T00:45:32;10.50;;;7.13;;
6089;SDS011;3073;42.660;23.316;2023-05-10T00:48:00;11.80;;;7.30;;
6089;SDS011;3073;42.660;23.316;2023-05-10T00:50:29;11.00;;;8.03;;
6089;SDS011;3073;42.660;23.316;2023-05-10T00:52:57;13.80;;;8.97;;
6089;SDS011;3073;42.660;23.316;2023-05-10T00:55:24;13.93;;;8.73;;
6089;SDS011;3073;42.660;23.316;2023-05-10T00:57:52;13.17;;;8.00;;
6089;SDS011;3073;42.660;23.316;2023-05-10T01:00:20;13.20;;;8.60;;
6089;SDS011;3073;42.660;23.316;2023-05-10T01:02:48;13.77;;;8.93;;
6089;SDS011;3073;42.660;23.316;2023-05-10T01:05:15;11.40;;;7.97;;
6089;SDS011;3073;42.660;23.316;2023-05-10T01:07:42;11.33;;;8.70;;
6089;SDS011;3073;42.660;23.316;2023-05-10T01:10:09;14.03;;;8.20;;
6089;SDS011;3073;42.660;23.316;2023-05-10T01:12:37;14.07;;;8.83;;
6089;SDS011;3073;42.660;23.316;2023-05-10T01:15:06;13.20;;;8.37;;
6089;SDS011;3073;42.660;23.316;2023-05-10T01:17:38;13.30;;;9.87;;
6089;SDS011;3073;42.660;23.316;2023-05-10T01:20:08;12.73;;;8.80;;
6089;SDS011;3073;42.660;23.316;2023-05-10T01:22:50;13.57;;;9.13;;
6089;SDS011;3073;42.660;23.316;2023-05-10T01:25:43;10.70;;;7.43;;
6089;SDS011;3073;42.660;23.316;2023-05-10T01:28:38;11.40;;;7.97;;
6089;SDS011;3073;42.660;23.316;2023-05-10T01:31:37;12.67;;;7.57;;
6089;SDS011;3073;42.660;23.316;2023-05-10T01:34:23;11.73;;;8.33;;
6089;SDS011;3073;42.660;23.316;2023-05-10T01:36:54;9.87;;;7.70;;
6089;SDS011;3073;42.660;23.316;2023-05-10T01:39:25;8.97;;;6.83;;
6089;SDS011;3073;42.660;23.316;2023-05-10T01:42:00;11.03;;;7.77;;
6089;SDS011;3073;42.660;23.316;2023-05-10T01:44:31;7.00;;;5.40;;
6089;SDS011;3073;42.660;23.316;2023-05-10T01:47:05;8.50;;;6.20;;
6089;SDS011;3073;42.660;23.316;2023-05-10T01:49:37;10.33;;;6.70;;
6089;SDS011;3073;42.660;23.316;2023-05-10T01:52:09;6.63;;;5.70;;
6089;SDS011;3073;42.660;23.316;2023-05-10T01:54:41;10.43;;;6.90;;
6089;SDS011;3073;42.660;23.316;2023-05-10T01:57:15;6.93;;;5.27;;
6089;SDS011;3073;42.660;23.316;2023-05-10T01:59:48;7.00;;;6.00;;
6089;SDS011;3073;42.660;23.316;2023-05-10T02:02:18;11.10;;;6.20;;
6089;SDS011;3073;42.660;23.316;2023-05-10T02:04:47;8.93;;;6.13;;
6089;SDS011;3073;42.660;23.316;2023-05-10T02:07:16;10.30;;;6.13;;
6089;SDS011;3073;42.660;23.316;2023-05-10T02:09:45;9.13;;;5.90;;
6089;SDS011;3073;42.660;23.316;2023-05-10T02:12:14;9.37;;;6.87;;
6089;SDS011;3073;42.660;23.316;2023-05-10T02:14:42;7.60;;;5.50;;
6089;SDS011;3073;42.660;23.316;2023-05-10T02:17:10;6.67;;;5.63;;
6089;SDS011;3073;42.660;23.316;2023-05-10T02:19:40;8.07;;;5.80;;
6089;SDS011;3073;42.660;23.316;2023-05-10T02:22:09;7.83;;;5.77;;
6089;SDS011;3073;42.660;23.316;2023-05-10T02:24:36;8.10;;;5.97;;
6089;SDS011;3073;42.660;23.316;2023-05-10T02:27:05;6.03;;;5.03;;
6089;SDS011;3073;42.660;23.316;2023-05-10T02:29:34;7.63;;;5.00;;
6089;SDS011;3073;42.660;23.316;2023-05-10T02:32:02;10.10;;;5.60;;
6089;SDS011;3073;42.660;23.316;2023-05-10T02:34:31;9.60;;;5.67;;
6089;SDS011;3073;42.660;23.316;2023-05-10T02:37:00;5.33;;;4.40;;
6089;SDS011;3073;42.660;23.316;2023-05-10T02:39:28;5.80;;;4.83;;
6089;SDS011;3073;42.660;23.316;2023-05-10T02:41:57;8.07;;;5.33;;
6089;SDS011;3073;42.660;23.316;2023-05-10T02:44:26;8.00;;;5.80;;
6089;SDS011;3073;42.660;23.316;2023-05-10T02:46:56;6.50;;;4.67;;
6089;SDS011;3073;42.660;23.316;2023-05-10T02:49:23;7.50;;;4.47;;
6089;SDS011;3073;42.660;23.316;2023-05-10T02:51:51;6.83;;;4.83;;
6089;SDS011;3073;42.660;23.316;2023-05-10T02:54:25;8.00;;;5.43;;
6089;SDS011;3073;42.660;23.316;2023-05-10T02:56:56;8.20;;;5.57;;
6089;SDS011;3073;42.660;23.316;2023-05-10T02:59:25;8.20;;;5.47;;
6089;SDS011;3073;42.660;23.316;2023-05-10T03:01:52;9.33;;;4.80;;
6089;SDS011;3073;42.660;23.316;2023-05-10T03:04:19;9.33;;;5.80;;
6089;SDS011;3073;42.660;23.316;2023-05-10T03:06:46;9.10;;;5.33;;
6089;SDS011;3073;42.660;23.316;2023-05-10T03:09:14;9.30;;;5.53;;
6089;SDS011;3073;42.660;23.316;2023-05-10T03:11:46;10.37;;;5.33;;
6089;SDS011;3073;42.660;23.316;2023-05-10T03:14:21;8.47;;;6.07;;
6089;SDS011;3073;42.660;23.316;2023-05-10T03:17:03;8.53;;;5.67;;
6089;SDS011;3073;42.660;23.316;2023-05-10T03:19:41;8.47;;;5.97;;
6089;SDS011;3073;42.660;23.316;2023-05-10T03:22:16;14.23;;;5.10;;
6089;SDS011;3073;42.660;23.316;2023-05-10T03:24:47;6.77;;;5.10;;
6089;SDS011;3073;42.660;23.316;2023-05-10T03:27:17;8.27;;;4.93;;
6089;SDS011;3073;42.660;23.316;2023-05-10T03:29:45;6.10;;;4.70;;
6089;SDS011;3073;42.660;23.316;2023-05-10T03:32:12;6.50;;;4.80;;
6089;SDS011;3073;42.660;23.316;2023-05-10T03:34:41;6.40;;;4.53;;
6089;SDS011;3073;42.660;23.316;2023-05-10T03:37:08;7.30;;;4.60;;
6089;SDS011;3073;42.660;23.316;2023-05-10T03:39:35;7.63;;;5.30;;
6089;SDS011;3073;42.660;23.316;2023-05-10T03:42:02;6.23;;;4.67;;
6089;SDS011;3073;42.660;23.316;2023-05-10T03:44:30;6.17;;;3.70;;
6089;SDS011;3073;42.660;23.316;2023-05-10T03:46:58;6.70;;;4.07;;
6089;SDS011;3073;42.660;23.316;2023-05-10T03:49:25;4.53;;;3.77;;
6089;SDS011;3073;42.660;23.316;2023-05-10T03:51:52;7.57;;;3.97;;
6089;SDS011;3073;42.660;23.316;2023-05-10T03:54:19;7.13;;;4.53;;
6089;SDS011;3073;42.660;23.316;2023-05-10T03:56:46;11.37;;;4.33;;
6089;SDS011;3073;42.660;23.316;2023-05-10T03:59:15;6.13;;;4.10;;
6089;SDS011;3073;42.660;23.316;2023-05-10T04:01:44;4.80;;;3.00;;
6089;SDS011;3073;42.660;23.316;2023-05-10T04:04:14;4.67;;;3.60;;
6089;SDS011;3073;42.660;23.316;2023-05-10T04:06:40;5.57;;;3.90;;
6089;SDS011;3073;42.660;23.316;2023-05-10T04:09:07;5.90;;;3.60;;
6089;SDS011;3073;42.660;23.316;2023-05-10T04:11:34;4.53;;;3.57;;
6089;SDS011;3073;42.660;23.316;2023-05-10T04:14:04;6.40;;;3.73;;
6089;SDS011;3073;42.660;23.316;2023-05-10T04:16:36;3.50;;;3.10;;
6089;SDS011;3073;42.660;23.316;2023-05-10T04:19:06;7.30;;;4.87;;
6089;SDS011;3073;42.660;23.316;2023-05-10T04:21:33;7.47;;;4.30;;
6089;SDS011;3073;42.660;23.316;2023-05-10T04:23:59;7.63;;;4.90;;
6089;SDS011;3073;42.660;23.316;2023-05-10T04:26:26;6.17;;;3.90;;
6089;SDS011;3073;42.660;23.316;2023-05-10T04:28:53;6.20;;;3.50;;
6089;SDS011;3073;42.660;23.316;2023-05-10T04:31:20;5.57;;;3.70;;
6089;SDS011;3073;42.660;23.316;2023-05-10T04:33:47;8.30;;;4.60;;
6089;SDS011;3073;42.660;23.316;2023-05-10T04:36:16;5.33;;;4.40;;
6089;SDS011;3073;42.660;23.316;2023-05-10T04:38:43;9.60;;;3.97;;
6089;SDS011;3073;42.660;23.316;2023-05-10T04:41:10;6.20;;;4.37;;
6089;SDS011;3073;42.660;23.316;2023-05-10T04:43:37;6.30;;;3.97;;
6089;SDS011;3073;42.660;23.316;2023-05-10T04:46:04;6.10;;;4.20;;
6089;SDS011;3073;42.660;23.316;2023-05-10T04:48:32;5.10;;;4.10;;
6089;SDS011;3073;42.660;23.316;2023-05-10T04:50:59;6.70;;;4.23;;
6089;SDS011;3073;42.660;23.316;2023-05-10T04:53:27;6.93;;;4.43;;
6089;SDS011;3073;42.660;23.316;2023-05-10T04:55:54;9.03;;;5.30;;
6089;SDS011;3073;42.660;23.316;2023-05-10T04:58:21;6.07;;;4.60;;
6089;SDS011;3073;42.660;23.316;2023-05-10T05:00:48;9.07;;;5.20;;
6089;SDS011;3073;42.660;23.316;2023-05-10T05:03:15;5.70;;;4.10;;
6089;SDS011;3073;42.660;23.316;2023-05-10T05:05:41;6.93;;;4.60;;
6089;SDS011;3073;42.660;23.316;2023-05-10T05:08:09;7.80;;;4.37;;
6089;SDS011;3073;42.660;23.316;2023-05-10T05:10:37;12.00;;;5.00;;
6089;SDS011;3073;42.660;23.316;2023-05-10T05:13:04;5.13;;;3.97;;
6089;SDS011;3073;42.660;23.316;2023-05-10T05:15:31;7.80;;;4.50;;
6089;SDS011;3073;42.660;23.316;2023-05-10T05:17:58;9.43;;;5.30;;
6089;SDS011;3073;42.660;23.316;2023-05-10T05:20:25;5.33;;;3.80;;
6089;SDS011;3073;42.660;23.316;2023-05-10T05:22:52;6.77;;;4.50;;
6089;SDS011;3073;42.660;23.316;2023-05-10T05:25:18;11.67;;;4.50;;
6089;SDS011;3073;42.660;23.316;2023-05-10T05:27:47;6.50;;;4.80;;
6089;SDS011;3073;42.660;23.316;2023-05-10T05:30:14;6.87;;;5.13;;
6089;SDS011;3073;42.660;23.316;2023-05-10T05:32:40;7.50;;;4.90;;
6089;SDS011;3073;42.660;23.316;2023-05-10T05:35:07;15.43;;;5.93;;
6089;SDS011;3073;42.660;23.316;2023-05-10T05:37:35;10.30;;;5.40;;
6089;SDS011;3073;42.660;23.316;2023-05-10T05:40:02;7.67;;;5.53;;
6089;SDS011;3073;42.660;23.316;2023-05-10T05:42:30;8.77;;;5.83;;
6089;SDS011;3073;42.660;23.316;2023-05-10T05:44:59;11.13;;;7.47;;
6089;SDS011;3073;42.660;23.316;2023-05-10T05:47:26;9.37;;;5.87;;
6089;SDS011;3073;42.660;23.316;2023-05-10T05:49:52;9.47;;;6.80;;
6089;SDS011;3073;42.660;23.316;2023-05-10T05:52:20;13.33;;;6.13;;
6089;SDS011;3073;42.660;23.316;2023-05-10T05:54:47;14.40;;;7.43;;
6089;SDS011;3073;42.660;23.316;2023-05-10T05:57:14;10.60;;;6.90;;
6089;SDS011;3073;42.660;23.316;2023-05-10T05:59:41;9.03;;;6.73;;
6089;SDS011;3073;42.660;23.316;2023-05-10T06:02:10;9.67;;;7.50;;
6089;SDS011;3073;42.660;23.316;2023-05-10T06:04:37;11.27;;;6.93;;
6089;SDS011;3073;42.660;23.316;2023-05-10T06:07:04;12.57;;;8.30;;
6089;SDS011;3073;42.660;23.316;2023-05-10T06:09:30;12.77;;;7.53;;
6089;SDS011;3073;42.660;23.316;2023-05-10T06:11:57;10.13;;;7.47;;
6089;SDS011;3073;42.660;23.316;2023-05-10T06:14:24;11.43;;;7.60;;
6089;SDS011;3073;42.660;23.316;2023-05-10T06:16:51;13.50;;;7.93;;
6089;SDS011;3073;42.660;23.316;2023-05-10T06:19:19;13.00;;;8.90;;
6089;SDS011;3073;42.660;23.316;2023-05-10T06:21:46;13.50;;;7.70;;
6089;SDS011;3073;42.660;23.316;2023-05-10T06:24:13;11.97;;;7.80;;
6089;SDS011;3073;42.660;23.316;2023-05-10T06:26:40;12.30;;;7.93;;
6089;SDS011;3073;42.660;23.316;2023-05-10T06:29:07;13.50;;;7.67;;
6089;SDS011;3073;42.660;23.316;2023-05-10T06:31:33;9.37;;;6.63;;
6089;SDS011;3073;42.660;23.316;2023-05-10T06:34:00;11.40;;;7.60;;
6089;SDS011;3073;42.660;23.316;2023-05-10T06:36:28;13.60;;;7.70;;
6089;SDS011;3073;42.660;23.316;2023-05-10T06:38:55;11.00;;;6.53;;
6089;SDS011;3073;42.660;23.316;2023-05-10T06:41:22;14.13;;;6.30;;
6089;SDS011;3073;42.660;23.316;2023-05-10T06:43:49;14.10;;;8.33;;
6089;SDS011;3073;42.660;23.316;2023-05-10T06:46:16;11.37;;;7.70;;
6089;SDS011;3073;42.660;23.316;2023-05-10T06:48:44;11.47;;;7.60;;
6089;SDS011;3073;42.660;23.316;2023-05-10T06:51:11;10.20;;;7.17;;
6089;SDS011;3073;42.660;23.316;2023-05-10T06:53:39;10.17;;;7.00;;
6089;SDS011;3073;42.660;23.316;2023-05-10T06:56:06;13.23;;;7.37;;
6089;SDS011;3073;42.660;23.316;2023-05-10T06:58:33;12.87;;;8.60;;
6089;SDS011;3073;42.660;23.316;2023-05-10T07:01:03;10.80;;;7.20;;
6089;SDS011;3073;42.660;23.316;2023-05-10T07:03:30;13.10;;;8.20;;
6089;SDS011;3073;42.660;23.316;2023-05-10T07:05:59;11.57;;;7.30;;
6089;SDS011;3073;42.660;23.316;2023-05-10T07:08:28;12.40;;;8.67;;
6089;SDS011;3073;42.660;23.316;2023-05-10T07:11:00;12.77;;;8.03;;
6089;SDS011;3073;42.660;23.316;2023-05-10T07:13:28;9.70;;;6.30;;
6089;SDS011;3073;42.660;23.316;2023-05-10T07:15:56;12.13;;;7.93;;
6089;SDS011;3073;42.660;23.316;2023-05-10T07:18:23;13.70;;;7.87;;
6089;SDS011;3073;42.660;23.316;2023-05-10T07:20:50;13.37;;;7.70;;
6089;SDS011;3073;42.660;23.316;2023-05-10T07:23:17;11.67;;;8.00;;
6089;SDS011;3073;42.660;23.316;2023-05-10T07:25:44;10.90;;;7.67;;
6089;SDS011;3073;42.660;23.316;2023-05-10T07:28:14;13.10;;;7.50;;
6089;SDS011;3073;42.660;23.316;2023-05-10T07:30:41;10.83;;;7.17;;
6089;SDS011;3073;42.660;23.316;2023-05-10T07:33:08;8.00;;;6.73;;
6089;SDS011;3073;42.660;23.316;2023-05-10T07:35:36;12.70;;;7.73;;
6089;SDS011;3073;42.660;23.316;2023-05-10T07:38:03;13.90;;;7.20;;
6089;SDS011;3073;42.660;23.316;2023-05-10T07:40:30;10.97;;;7.50;;
6089;SDS011;3073;42.660;23.316;2023-05-10T07:42:57;12.50;;;8.30;;
6089;SDS011;3073;42.660;23.316;2023-05-10T07:45:26;12.43;;;8.10;;
6089;SDS011;3073;42.660;23.316;2023-05-10T07:47:53;14.63;;;8.70;;
6089;SDS011;3073;42.660;23.316;2023-05-10T07:50:20;14.63;;;8.23;;
6089;SDS011;3073;42.660;23.316;2023-05-10T07:52:47;9.80;;;7.30;;
6089;SDS011;3073;42.660;23.316;2023-05-10T07:55:14;11.57;;;8.20;;
6089;SDS011;3073;42.660;23.316;2023-05-10T07:57:41;11.30;;;7.27;;
6089;SDS011;3073;42.660;23.316;2023-05-10T08:00:09;14.30;;;8.13;;
6089;SDS011;3073;42.660;23.316;2023-05-10T08:02:40;12.77;;;8.20;;
6089;SDS011;3073;42.660;23.316;2023-05-10T08:05:07;12.90;;;7.67;;
6089;SDS011;3073;42.660;23.316;2023-05-10T08:07:34;13.80;;;8.70;;
6089;SDS011;3073;42.660;23.316;2023-05-10T08:10:01;15.03;;;9.23;;
6089;SDS011;3073;42.660;23.316;2023-05-10T08:12:28;20.80;;;9.20;;
6089;SDS011;3073;42.660;23.316;2023-05-10T08:14:57;15.57;;;8.03;;
6089;SDS011;3073;42.660;23.316;2023-05-10T08:17:24;15.77;;;9.53;;
6089;SDS011;3073;42.660;23.316;2023-05-10T08:19:52;14.77;;;8.10;;
6089;SDS011;3073;42.660;23.316;2023-05-10T08:22:19;14.33;;;7.70;;
6089;SDS011;3073;42.660;23.316;2023-05-10T08:24:46;11.30;;;7.40;;
6089;SDS011;3073;42.660;23.316;2023-05-10T08:27:13;13.77;;;8.60;;
6089;SDS011;3073;42.660;23.316;2023-05-10T08:29:40;12.90;;;7.77;;
6089;SDS011;3073;42.660;23.316;2023-05-10T08:32:07;10.80;;;8.00;;
6089;SDS011;3073;42.660;23.316;2023-05-10T08:34:33;11.63;;;7.93;;
6089;SDS011;3073;42.660;23.316;2023-05-10T08:37:02;10.60;;;7.50;;
6089;SDS011;3073;42.660;23.316;2023-05-10T08:39:33;13.10;;;7.93;;
6089;SDS011;3073;42.660;23.316;2023-05-10T08:42:01;9.83;;;6.70;;
6089;SDS011;3073;42.660;23.316;2023-05-10T08:44:30;11.93;;;7.87;;
6089;SDS011;3073;42.660;23.316;2023-05-10T08:46:58;15.43;;;9.07;;
6089;SDS011;3073;42.660;23.316;2023-05-10T08:49:28;11.70;;;8.90;;
6089;SDS011;3073;42.660;23.316;2023-05-10T08:51:58;12.83;;;9.23;;
6089;SDS011;3073;42.660;23.316;2023-05-10T08:54:29;11.40;;;7.60;;
6089;SDS011;3073;42.660;23.316;2023-05-10T08:56:58;13.17;;;9.33;;
6089;SDS011;3073;42.660;23.316;2023-05-10T08:59:25;12.10;;;9.10;;
6089;SDS011;3073;42.660;23.316;2023-05-10T09:01:52;11.13;;;8.20;;
6089;SDS011;3073;42.660;23.316;2023-05-10T09:04:22;13.20;;;8.50;;
6089;SDS011;3073;42.660;23.316;2023-05-10T09:06:49;15.40;;;9.70;;
6089;SDS011;3073;42.660;23.316;2023-05-10T09:09:16;12.50;;;7.90;;
6089;SDS011;3073;42.660;23.316;2023-05-10T09:11:47;14.10;;;8.77;;
6089;SDS011;3073;42.660;23.316;2023-05-10T09:14:15;11.73;;;9.00;;
6089;SDS011;3073;42.660;23.316;2023-05-10T09:16:43;13.50;;;8.57;;
6089;SDS011;3073;42.660;23.316;2023-05-10T09:19:10;23.40;;;10.00;;
6089;SDS011;3073;42.660;23.316;2023-05-10T09:21:37;15.00;;;10.07;;
6089;SDS011;3073;42.660;23.316;2023-05-10T09:24:05;14.23;;;10.10;;
6089;SDS011;3073;42.660;23.316;2023-05-10T09:26:33;20.40;;;10.57;;
6089;SDS011;3073;42.660;23.316;2023-05-10T09:29:02;16.30;;;11.10;;
6089;SDS011;3073;42.660;23.316;2023-05-10T09:31:43;11.70;;;8.53;;
6089;SDS011;3073;42.660;23.316;2023-05-10T09:34:11;13.70;;;9.77;;
6089;SDS011;3073;42.660;23.316;2023-05-10T09:36:56;13.37;;;8.60;;
6089;SDS011;3073;42.660;23.316;2023-05-10T09:39:29;16.33;;;10.07;;
6089;SDS011;3073;42.660;23.316;2023-05-10T09:41:58;15.37;;;10.57;;
6089;SDS011;3073;42.660;23.316;2023-05-10T09:44:27;15.13;;;10.73;;
6089;SDS011;3073;42.660;23.316;2023-05-10T09:46:54;18.00;;;10.27;;
6089;SDS011;3073;42.660;23.316;2023-05-10T09:49:21;14.40;;;9.53;;
6089;SDS011;3073;42.660;23.316;2023-05-10T09:51:56;14.50;;;9.73;;
6089;SDS011;3073;42.660;23.316;2023-05-10T09:54:26;10.70;;;7.80;;
6089;SDS011;3073;42.660;23.316;2023-05-10T09:56:53;13.17;;;7.30;;
6089;SDS011;3073;42.660;23.316;2023-05-10T09:59:20;11.03;;;7.70;;
6089;SDS011;3073;42.660;23.316;2023-05-10T10:01:50;12.43;;;7.33;;
6089;SDS011;3073;42.660;23.316;2023-05-10T10:04:18;14.10;;;9.37;;
6089;SDS011;3073;42.660;23.316;2023-05-10T10:06:46;12.77;;;9.00;;
6089;SDS011;3073;42.660;23.316;2023-05-10T10:09:24;11.50;;;8.30;;
6089;SDS011;3073;42.660;23.316;2023-05-10T10:11:51;11.00;;;7.50;;
6089;SDS011;3073;42.660;23.316;2023-05-10T10:14:18;14.30;;;7.87;;
6089;SDS011;3073;42.660;23.316;2023-05-10T10:16:46;11.40;;;7.60;;
6089;SDS011;3073;42.660;23.316;2023-05-10T10:19:14;10.13;;;7.00;;
6089;SDS011;3073;42.660;23.316;2023-05-10T10:21:41;14.37;;;7.77;;
6089;SDS011;3073;42.660;23.316;2023-05-10T10:24:08;15.50;;;8.20;;
6089;SDS011;3073;42.660;23.316;2023-05-10T10:26:35;12.97;;;8.33;;
6089;SDS011;3073;42.660;23.316;2023-05-10T10:29:08;8.30;;;6.40;;
6089;SDS011;3073;42.660;23.316;2023-05-10T10:31:45;10.57;;;7.20;;
6089;SDS011;3073;42.660;23.316;2023-05-10T10:34:21;11.90;;;7.10;;
6089;SDS011;3073;42.660;23.316;2023-05-10T10:36:53;11.47;;;7.60;;
6089;SDS011;3073;42.660;23.316;2023-05-10T10:39:21;10.00;;;6.93;;
6089;SDS011;3073;42.660;23.316;2023-05-10T10:41:50;12.83;;;8.10;;
6089;SDS011;3073;42.660;23.316;2023-05-10T10:44:25;13.07;;;5.97;;
6089;SDS011;3073;42.660;23.316;2023-05-10T10:47:03;11.00;;;7.13;;
6089;SDS011;3073;42.660;23.316;2023-05-10T10:49:38;10.40;;;6.33;;
6089;SDS011;3073;42.660;23.316;2023-05-10T10:52:14;7.83;;;6.63;;
6089;SDS011;3073;42.660;23.316;2023-05-10T10:54:50;9.53;;;6.93;;
6089;SDS011;3073;42.660;23.316;2023-05-10T10:57:18;9.97;;;6.30;;
6089;SDS011;3073;42.660;23.316;2023-05-10T10:59:46;14.30;;;5.73;;
6089;SDS011;3073;42.660;23.316;2023-05-10T11:02:32;15.10;;;6.37;;
6089;SDS011;3073;42.660;23.316;2023-05-10T11:05:03;9.87;;;7.13;;
6089;SDS011;3073;42.660;23.316;2023-05-10T11:07:53;8.00;;;6.50;;
6089;SDS011;3073;42.660;23.316;2023-05-10T11:10:20;10.70;;;7.10;;
6089;SDS011;3073;42.660;23.316;2023-05-10T11:12:51;11.13;;;6.17;;
6089;SDS011;3073;42.660;23.316;2023-05-10T11:15:19;14.00;;;6.90;;
6089;SDS011;3073;42.660;23.316;2023-05-10T11:17:47;16.60;;;6.87;;
6089;SDS011;3073;42.660;23.316;2023-05-10T11:20:18;7.87;;;6.30;;
6089;SDS011;3073;42.660;23.316;2023-05-10T11:22:51;8.93;;;6.40;;
6089;SDS011;3073;42.660;23.316;2023-05-10T11:25:19;9.03;;;6.47;;
6089;SDS011;3073;42.660;23.316;2023-05-10T11:27:47;6.17;;;5.10;;
6089;SDS011;3073;42.660;23.316;2023-05-10T11:30:14;6.33;;;5.07;;
6089;SDS011;3073;42.660;23.316;2023-05-10T11:32:41;8.03;;;6.37;;
6089;SDS011;3073;42.660;23.316;2023-05-10T11:35:08;5.33;;;4.57;;
6089;SDS011;3073;42.660;23.316;2023-05-10T11:37:38;7.90;;;5.40;;
6089;SDS011;3073;42.660;23.316;2023-05-10T11:40:08;8.10;;;5.80;;
6089;SDS011;3073;42.660;23.316;2023-05-10T11:42:36;10.60;;;6.03;;
6089;SDS011;3073;42.660;23.316;2023-05-10T11:45:04;7.20;;;5.73;;
6089;SDS011;3073;42.660;23.316;2023-05-10T11:47:31;9.80;;;6.23;;
6089;SDS011;3073;42.660;23.316;2023-05-10T11:49:58;14.60;;;7.07;;
6089;SDS011;3073;42.660;23.316;2023-05-10T11:52:25;21.07;;;6.47;;
6089;SDS011;3073;42.660;23.316;2023-05-10T11:54:54;10.97;;;5.83;;
6089;SDS011;3073;42.660;23.316;2023-05-10T11:57:25;9.60;;;5.60;;
6089;SDS011;3073;42.660;23.316;2023-05-10T11:59:53;6.60;;;5.30;;
6089;SDS011;3073;42.660;23.316;2023-05-10T12:02:20;10.13;;;6.00;;
6089;SDS011;3073;42.660;23.316;2023-05-10T12:04:47;14.10;;;6.40;;
6089;SDS011;3073;42.660;23.316;2023-05-10T12:07:15;9.13;;;6.00;;
6089;SDS011;3073;42.660;23.316;2023-05-10T12:09:42;11.70;;;6.70;;
6089;SDS011;3073;42.660;23.316;2023-05-10T12:12:11;12.60;;;7.90;;
6089;SDS011;3073;42.660;23.316;2023-05-10T12:14:42;10.83;;;6.97;;
6089;SDS011;3073;42.660;23.316;2023-05-10T12:17:11;9.13;;;7.20;;
6089;SDS011;3073;42.660;23.316;2023-05-10T12:19:38;10.03;;;6.63;;
6089;SDS011;3073;42.660;23.316;2023-05-10T12:22:05;10.00;;;7.53;;
6089;SDS011;3073;42.660;23.316;2023-05-10T12:24:34;6.23;;;5.13;;
6089;SDS011;3073;42.660;23.316;2023-05-10T12:27:04;8.77;;;5.70;;
6089;SDS011;3073;42.660;23.316;2023-05-10T12:29:34;8.27;;;5.60;;
6089;SDS011;3073;42.660;23.316;2023-05-10T12:32:01;9.23;;;5.93;;
6089;SDS011;3073;42.660;23.316;2023-05-10T12:34:30;11.00;;;5.80;;
6089;SDS011;3073;42.660;23.316;2023-05-10T12:36:58;11.63;;;6.93;;
6089;SDS011;3073;42.660;23.316;2023-05-10T12:39:26;12.03;;;6.70;;
6089;SDS011;3073;42.660;23.316;2023-05-10T12:42:05;11.73;;;7.90;;
6089;SDS011;3073;42.660;23.316;2023-05-10T12:44:32;15.87;;;8.00;;
6089;SDS011;3073;42.660;23.316;2023-05-10T12:47:00;10.17;;;7.10;;
6089;SDS011;3073;42.660;23.316;2023-05-10T12:49:27;14.70;;;7.73;;
6089;SDS011;3073;42.660;23.316;2023-05-10T12:51:54;9.90;;;7.90;;
6089;SDS011;3073;42.660;23.316;2023-05-10T12:54:21;9.50;;;6.70;;
6089;SDS011;3073;42.660;23.316;2023-05-10T12:56:51;36.23;;;9.10;;
6089;SDS011;3073;42.660;23.316;2023-05-10T12:59:17;20.20;;;8.20;;
6089;SDS011;3073;42.660;23.316;2023-05-10T13:01:44;11.30;;;7.67;;
6089;SDS011;3073;42.660;23.316;2023-05-10T13:04:12;10.90;;;7.10;;
6089;SDS011;3073;42.660;23.316;2023-05-10T13:06:39;8.50;;;5.73;;
6089;SDS011;3073;42.660;23.316;2023-05-10T13:09:06;15.07;;;6.90;;
6089;SDS011;3073;42.660;23.316;2023-05-10T13:11:33;8.90;;;6.67;;
6089;SDS011;3073;42.660;23.316;2023-05-10T13:13:59;8.30;;;5.30;;
6089;SDS011;3073;42.660;23.316;2023-05-10T13:16:28;18.57;;;8.00;;
6089;SDS011;3073;42.660;23.316;2023-05-10T13:18:55;11.20;;;7.33;;
6089;SDS011;3073;42.660;23.316;2023-05-10T13:21:23;8.90;;;7.17;;
6089;SDS011;3073;42.660;23.316;2023-05-10T13:23:50;11.23;;;8.00;;
6089;SDS011;3073;42.660;23.316;2023-05-10T13:26:17;10.47;;;6.80;;
6089;SDS011;3073;42.660;23.316;2023-05-10T13:28:45;15.63;;;7.97;;
6089;SDS011;3073;42.660;23.316;2023-05-10T13:31:11;8.87;;;5.87;;
6089;SDS011;3073;42.660;23.316;2023-05-10T13:33:38;9.90;;;6.77;;
6089;SDS011;3073;42.660;23.316;2023-05-10T13:36:06;10.70;;;7.20;;
6089;SDS011;3073;42.660;23.316;2023-05-10T13:38:34;10.50;;;7.23;;
6089;SDS011;3073;42.660;23.316;2023-05-10T13:41:01;16.23;;;6.70;;
6089;SDS011;3073;42.660;23.316;2023-05-10T13:43:28;12.37;;;7.17;;
6089;SDS011;3073;42.660;23.316;2023-05-10T13:45:55;14.50;;;6.70;;
6089;SDS011;3073;42.660;23.316;2023-05-10T13:48:22;10.47;;;7.30;;
6089;SDS011;3073;42.660;23.316;2023-05-10T13:50:49;8.87;;;5.20;;
6089;SDS011;3073;42.660;23.316;2023-05-10T13:53:15;10.23;;;7.70;;
6089;SDS011;3073;42.660;23.316;2023-05-10T13:59:03;12.20;;;7.53;;
6089;SDS011;3073;42.660;23.316;2023-05-10T14:01:30;13.60;;;6.93;;
6089;SDS011;3073;42.660;23.316;2023-05-10T14:03:57;12.47;;;8.03;;
6089;SDS011;3073;42.660;23.316;2023-05-10T14:06:23;11.70;;;7.30;;
6089;SDS011;3073;42.660;23.316;2023-05-10T14:08:52;9.30;;;6.60;;
6089;SDS011;3073;42.660;23.316;2023-05-10T14:11:18;12.40;;;6.00;;
6089;SDS011;3073;42.660;23.316;2023-05-10T14:13:45;11.10;;;6.57;;
6089;SDS011;3073;42.660;23.316;2023-05-10T14:16:14;16.57;;;7.70;;
6089;SDS011;3073;42.660;23.316;2023-05-10T14:18:41;12.73;;;7.80;;
6089;SDS011;3073;42.660;23.316;2023-05-10T14:21:08;11.63;;;6.80;;
6089;SDS011;3073;42.660;23.316;2023-05-10T14:23:34;11.70;;;6.63;;
6089;SDS011;3073;42.660;23.316;2023-05-10T14:26:01;9.03;;;6.13;;
6089;SDS011;3073;42.660;23.316;2023-05-10T14:28:29;9.27;;;5.63;;
6089;SDS011;3073;42.660;23.316;2023-05-10T14:30:55;14.70;;;6.73;;
6089;SDS011;3073;42.660;23.316;2023-05-10T14:33:24;12.80;;;6.60;;
6089;SDS011;3073;42.660;23.316;2023-05-10T14:35:51;11.57;;;6.77;;
6089;SDS011;3073;42.660;23.316;2023-05-10T14:38:18;10.97;;;6.63;;
6089;SDS011;3073;42.660;23.316;2023-05-10T14:40:45;9.90;;;6.30;;
6089;SDS011;3073;42.660;23.316;2023-05-10T14:43:12;10.90;;;6.40;;
6089;SDS011;3073;42.660;23.316;2023-05-10T14:45:38;10.80;;;7.07;;
6089;SDS011;3073;42.660;23.316;2023-05-10T14:48:06;10.27;;;6.77;;
6089;SDS011;3073;42.660;23.316;2023-05-10T14:50:37;10.63;;;6.87;;
6089;SDS011;3073;42.660;23.316;2023-05-10T14:56:02;12.80;;;7.30;;
6089;SDS011;3073;42.660;23.316;2023-05-10T14:58:29;21.13;;;7.40;;
6089;SDS011;3073;42.660;23.316;2023-05-10T15:00:56;12.87;;;7.77;;
6089;SDS011;3073;42.660;23.316;2023-05-10T15:03:23;21.53;;;7.20;;
6089;SDS011;3073;42.660;23.316;2023-05-10T15:05:51;9.63;;;6.67;;
6089;SDS011;3073;42.660;23.316;2023-05-10T15:08:18;8.90;;;6.50;;